createdAt,value
2023-05-11T00:04:59.278Z,65.32
2023-05-11T00:07:26.266Z,65.19
2023-05-11T00:09:52.889Z,65.52
2023-05-11T00:12:19.647Z,65.45
2023-05-11T00:14:46.846Z,65.80
2023-05-11T00:17:13.515Z,65.60
2023-05-11T00:19:40.931Z,65.59
2023-05-11T00:22:07.710Z,65.68
2023-05-11T00:24:34.385Z,65.48
2023-05-11T00:27:02.130Z,65.93
2023-05-11T00:29:28.774Z,65.70
2023-05-11T00:31:55.598Z,65.98
2023-05-11T00:34:22.453Z,66.07
2023-05-11T00:36:49.675Z,66.25
2023-05-11T00:39:17.545Z,66.35
2023-05-11T00:41:44.286Z,66.18
2023-05-11T00:44:10.942Z,66.21
2023-05-11T00:46:37.874Z,66.34
2023-05-11T00:49:04.756Z,66.83
2023-05-11T00:51:32.934Z,66.72
2023-05-11T00:54:00.787Z,66.78
2023-05-11T00:56:27.436Z,66.72
2023-05-11T00:58:54.126Z,67.19
2023-05-11T01:01:21.010Z,67.06
2023-05-11T01:03:48.294Z,67.11
2023-05-11T01:07:02.957Z,67.01
2023-05-11T01:09:57.738Z,67.12
2023-05-11T01:12:36.368Z,66.89
2023-05-11T01:15:19.085Z,66.48
2023-05-11T01:18:10.668Z,66.78
2023-05-11T01:20:37.974Z,66.58
2023-05-11T01:23:29.427Z,67.08
2023-05-11T01:26:29.118Z,67.32
2023-05-11T01:29:18.915Z,67.19
2023-05-11T01:31:49.644Z,67.28
2023-05-11T01:34:19.461Z,67.58
2023-05-11T01:37:09.590Z,67.67
2023-05-11T01:39:39.948Z,67.97
2023-05-11T01:42:10.887Z,67.98
2023-05-11T01:44:44.437Z,68.11
2023-05-11T01:47:13.518Z,68.30
2023-05-11T01:49:44.167Z,68.19
2023-05-11T01:52:13.730Z,68.02
2023-05-11T01:54:43.824Z,68.13
2023-05-11T01:57:12.951Z,68.36
2023-05-11T01:59:40.646Z,68.09
2023-05-11T02:02:09.676Z,68.10
2023-05-11T02:04:39.170Z,68.14
2023-05-11T02:07:09.670Z,68.49
2023-05-11T02:09:38.821Z,68.38
2023-05-11T02:12:06.606Z,67.98
2023-05-11T02:14:36.688Z,68.15
2023-05-11T02:17:05.523Z,68.22
2023-05-11T02:19:34.972Z,68.23
2023-05-11T02:22:02.245Z,68.54
2023-05-11T02:24:31.001Z,68.65
2023-05-11T02:26:59.142Z,68.75
2023-05-11T02:29:26.474Z,68.58
2023-05-11T02:32:01.186Z,68.59
2023-05-11T02:34:39.194Z,68.69
2023-05-11T02:37:11.480Z,68.39
2023-05-11T02:39:39.876Z,68.68
2023-05-11T02:42:14.302Z,68.52
2023-05-11T02:44:46.008Z,68.85
2023-05-11T02:47:15.053Z,68.64
2023-05-11T02:49:44.889Z,68.81
2023-05-11T02:52:14.065Z,68.82
2023-05-11T02:54:41.537Z,68.87
2023-05-11T02:57:08.856Z,68.90
2023-05-11T02:59:35.701Z,69.03
2023-05-11T03:02:02.770Z,68.97
2023-05-11T03:04:29.981Z,68.98
2023-05-11T03:06:56.741Z,69.12
2023-05-11T03:09:23.766Z,69.36
2023-05-11T03:11:51.083Z,69.42
2023-05-11T03:14:18.181Z,69.33
2023-05-11T03:16:45.874Z,69.36
2023-05-11T03:19:13.579Z,69.29
2023-05-11T03:21:40.376Z,69.51
2023-05-11T03:24:08.526Z,69.78
2023-05-11T03:26:36.431Z,69.81
2023-05-11T03:29:03.518Z,69.81
2023-05-11T03:31:30.401Z,69.83
2023-05-11T03:33:57.698Z,70.12
2023-05-11T03:36:25.656Z,70.37
2023-05-11T03:38:56.675Z,70.54
2023-05-11T03:41:26.382Z,70.59
2023-05-11T03:43:56.161Z,70.63
2023-05-11T03:46:24.610Z,70.25
2023-05-11T03:48:53.085Z,70.53
2023-05-11T03:51:20.400Z,70.62
2023-05-11T03:53:47.672Z,70.70
2023-05-11T03:56:14.497Z,70.85
2023-05-11T03:58:41.570Z,70.72
2023-05-11T04:01:11.618Z,70.95
2023-05-11T04:03:49.824Z,70.81
2023-05-11T04:06:17.786Z,71.08
2023-05-11T04:08:45.040Z,71.16
2023-05-11T04:11:12.011Z,71.38
2023-05-11T04:13:38.877Z,71.38
2023-05-11T04:16:06.118Z,71.72
2023-05-11T04:18:33.038Z,71.71
2023-05-11T04:20:59.669Z,71.53
2023-05-11T04:23:26.305Z,71.81
2023-05-11T04:25:57.112Z,71.80
2023-05-11T04:28:28.161Z,72.07
2023-05-11T04:30:56.492Z,72.07
2023-05-11T04:33:24.203Z,72.19
2023-05-11T04:35:51.867Z,72.17
2023-05-11T04:38:19.738Z,72.52
2023-05-11T04:40:48.003Z,72.73
2023-05-11T04:43:15.308Z,72.85
2023-05-11T04:45:42.018Z,72.98
2023-05-11T04:48:09.036Z,72.94
2023-05-11T04:50:36.849Z,73.21
2023-05-11T04:53:03.437Z,73.08
2023-05-11T04:55:30.633Z,73.29
2023-05-11T04:57:57.381Z,73.29
2023-05-11T05:00:24.421Z,73.24
2023-05-11T05:02:51.996Z,73.39
2023-05-11T05:05:18.885Z,73.51
2023-05-11T05:07:45.945Z,73.44
2023-05-11T05:10:13.234Z,73.62
2023-05-11T05:12:40.519Z,73.65
2023-05-11T05:15:08.069Z,73.27
2023-05-11T05:17:35.136Z,73.49
2023-05-11T05:20:01.966Z,73.31
2023-05-11T05:22:28.724Z,73.43
2023-05-11T05:24:55.709Z,73.48
2023-05-11T05:27:22.335Z,73.75
2023-05-11T05:29:48.886Z,73.38
2023-05-11T05:32:15.660Z,73.19
2023-05-11T05:34:42.358Z,73.04
2023-05-11T05:37:09.424Z,72.58
2023-05-11T05:39:36.436Z,72.41
2023-05-11T05:42:03.366Z,71.81
2023-05-11T05:44:30.025Z,71.00
2023-05-11T05:46:57.261Z,70.32
2023-05-11T05:49:23.842Z,69.85
2023-05-11T05:51:51.725Z,68.86
2023-05-11T05:54:18.655Z,68.58
2023-05-11T05:56:45.294Z,68.61
2023-05-11T05:59:13.288Z,67.67
2023-05-11T06:01:46.594Z,67.02
2023-05-11T06:04:13.993Z,66.41
2023-05-11T06:06:40.892Z,65.73
2023-05-11T06:09:08.028Z,65.30
2023-05-11T06:11:34.723Z,64.76
2023-05-11T06:14:01.532Z,63.97
2023-05-11T06:16:28.581Z,63.79
2023-05-11T06:18:55.529Z,63.13
2023-05-11T06:21:23.633Z,63.01
2023-05-11T06:23:50.778Z,62.62
2023-05-11T06:26:17.448Z,61.83
2023-05-11T06:28:44.045Z,61.42
2023-05-11T06:31:11.128Z,61.34
2023-05-11T06:33:37.736Z,60.71
2023-05-11T06:36:05.971Z,60.07
2023-05-11T06:38:33.629Z,59.37
2023-05-11T06:41:00.337Z,59.10
2023-05-11T06:43:27.076Z,58.31
2023-05-11T06:45:54.134Z,57.94
2023-05-11T06:48:23.532Z,57.37
2023-05-11T06:50:50.350Z,56.31
2023-05-11T06:53:18.231Z,55.95
2023-05-11T06:55:45.094Z,55.03
2023-05-11T06:58:11.896Z,54.80
2023-05-11T07:00:38.958Z,54.04
2023-05-11T07:03:09.110Z,53.34
2023-05-11T07:05:36.155Z,53.00
2023-05-11T07:08:03.898Z,51.89
2023-05-11T07:10:31.772Z,51.56
2023-05-11T07:12:58.404Z,50.83
2023-05-11T07:15:25.402Z,50.91
2023-05-11T07:17:52.757Z,50.40
2023-05-11T07:20:19.768Z,49.82
2023-05-11T07:22:46.959Z,48.95
2023-05-11T07:25:14.073Z,48.66
2023-05-11T07:27:40.660Z,47.88
2023-05-11T07:30:08.416Z,47.38
2023-05-11T12:32:15.217Z,30.03
2023-05-11T12:34:41.954Z,30.14
2023-05-11T12:37:08.734Z,30.08
2023-05-11T12:39:36.147Z,30.40
2023-05-11T12:42:02.896Z,30.53
2023-05-11T12:44:29.971Z,30.06
2023-05-11T12:46:57.045Z,29.90
2023-05-11T12:49:26.615Z,29.89
2023-05-11T12:52:00.531Z,30.16
2023-05-11T12:54:34.360Z,30.07
2023-05-11T12:57:02.966Z,29.74
2023-05-11T12:59:34.926Z,29.76
2023-05-11T13:02:10.464Z,29.82
2023-05-11T13:04:37.845Z,30.06
2023-05-11T13:07:05.048Z,30.04
2023-05-11T13:09:31.927Z,30.18
2023-05-11T13:12:18.478Z,30.34
2023-05-11T13:14:47.378Z,30.27
2023-05-11T13:17:29.779Z,30.57
2023-05-11T13:19:56.574Z,30.42
2023-05-11T13:22:23.173Z,30.47
2023-05-11T13:24:51.074Z,30.25
2023-05-11T13:27:17.796Z,29.95
2023-05-11T13:29:44.456Z,30.35
2023-05-11T13:32:12.451Z,29.95
2023-05-11T13:34:39.387Z,29.41
2023-05-11T13:37:06.242Z,29.41
2023-05-11T13:39:32.889Z,29.55
2023-05-11T13:41:59.587Z,29.83
2023-05-11T13:44:26.145Z,30.24
2023-05-11T13:46:52.826Z,30.27
2023-05-11T13:49:19.591Z,30.56
2023-05-11T13:51:46.232Z,31.10
2023-05-11T13:54:13.315Z,31.28
2023-05-11T13:56:40.110Z,31.23
2023-05-11T13:59:07.179Z,31.44
2023-05-11T14:01:34.009Z,30.98
2023-05-11T14:04:00.764Z,30.71
2023-05-11T14:06:27.405Z,30.80
2023-05-11T14:08:54.736Z,30.57
2023-05-11T14:11:21.554Z,30.94
2023-05-11T14:13:48.380Z,31.21
2023-05-11T14:16:15.079Z,31.97
2023-05-11T14:18:42.318Z,32.25
2023-05-11T14:21:08.976Z,32.52
2023-05-11T14:23:37.625Z,32.07
2023-05-11T14:26:05.764Z,31.71
2023-05-11T14:28:32.375Z,31.55
2023-05-11T14:30:59.043Z,31.48
2023-05-11T14:33:25.961Z,31.40
2023-05-11T14:35:52.998Z,31.66
2023-05-11T14:38:20.008Z,31.89
2023-05-11T14:40:46.967Z,31.88
2023-05-11T14:43:13.729Z,31.99
2023-05-11T14:45:40.758Z,32.22
2023-05-11T14:48:11.119Z,31.82
2023-05-11T14:50:37.693Z,31.70
2023-05-11T14:53:04.367Z,31.80
2023-05-11T14:55:31.208Z,31.76
2023-05-11T14:57:57.824Z,31.70
2023-05-11T15:00:24.506Z,31.62
2023-05-11T15:02:52.036Z,31.47
2023-05-11T15:05:18.895Z,31.52
2023-05-11T15:07:45.843Z,31.33
2023-05-11T15:10:12.517Z,31.38
2023-05-11T15:12:39.603Z,31.52
2023-05-11T15:15:06.757Z,31.71
2023-05-11T15:17:33.619Z,31.69
2023-05-11T15:20:00.551Z,31.74
2023-05-11T15:22:27.186Z,32.19
2023-05-11T15:24:54.075Z,32.27
2023-05-11T15:27:20.725Z,31.95
2023-05-11T15:29:47.298Z,31.74
2023-05-11T15:32:15.285Z,32.22
2023-05-11T15:34:57.861Z,31.89
2023-05-11T15:37:25.626Z,32.31
2023-05-11T15:39:52.293Z,32.07
2023-05-11T15:42:18.896Z,32.06
2023-05-11T15:44:45.734Z,32.10
2023-05-11T15:47:12.386Z,31.93
2023-05-11T15:49:39.002Z,31.92
2023-05-11T15:52:05.943Z,31.76
2023-05-11T15:54:35.227Z,31.64
2023-05-11T15:57:02.524Z,31.60
2023-05-11T15:59:29.168Z,31.66
2023-05-11T16:01:55.904Z,32.00
2023-05-11T16:04:22.490Z,32.21
2023-05-11T16:06:49.122Z,32.38
2023-05-11T16:09:16.676Z,32.58
2023-05-11T16:11:43.645Z,32.78
2023-05-11T16:14:10.312Z,32.95
2023-05-11T16:16:37.190Z,32.94
2023-05-11T16:19:03.914Z,33.34
2023-05-11T16:21:30.803Z,33.42
2023-05-11T16:23:59.652Z,33.48
2023-05-11T16:26:26.930Z,33.50
2023-05-11T16:28:54.102Z,33.58
2023-05-11T16:31:20.793Z,34.06
2023-05-11T16:33:47.480Z,34.23
2023-05-11T16:36:14.377Z,34.35
2023-05-11T16:38:41.529Z,34.45
2023-05-11T16:41:08.164Z,34.59
2023-05-11T16:43:34.918Z,34.88
2023-05-11T16:46:02.468Z,35.27
2023-05-11T16:48:29.178Z,35.44
2023-05-11T16:50:56.026Z,35.53
2023-05-11T16:53:27.159Z,35.68
2023-05-11T16:55:57.151Z,35.99
2023-05-11T16:58:24.807Z,36.15
2023-05-11T17:00:52.448Z,36.27
2023-05-11T17:03:19.810Z,36.33
2023-05-11T17:05:49.697Z,36.45
2023-05-11T17:08:17.226Z,36.44
2023-05-11T17:10:44.127Z,36.41
2023-05-11T17:13:10.988Z,36.40
2023-05-11T17:15:38.080Z,36.56
2023-05-11T17:18:04.899Z,36.83
2023-05-11T17:20:32.172Z,36.75
2023-05-11T17:22:59.387Z,36.97
2023-05-11T17:25:26.417Z,37.05
2023-05-11T17:27:53.059Z,37.37
2023-05-11T17:30:20.932Z,37.56
2023-05-11T17:32:48.916Z,37.62
2023-05-11T17:35:15.855Z,37.76
2023-05-11T17:37:42.470Z,38.08
2023-05-11T17:40:09.883Z,38.03
2023-05-11T17:42:36.718Z,38.19
2023-05-11T17:45:03.645Z,38.64
2023-05-11T17:47:31.325Z,38.69
2023-05-11T17:49:57.955Z,38.80
2023-05-11T17:52:25.900Z,39.15
2023-05-11T17:54:52.995Z,38.99
2023-05-11T17:57:19.896Z,39.16
2023-05-11T17:59:47.573Z,39.10
2023-05-11T18:02:14.507Z,39.36
2023-05-11T18:04:42.092Z,39.17
2023-05-11T18:07:09.508Z,39.53
2023-05-11T18:09:36.501Z,39.50
2023-05-11T18:12:04.425Z,39.80
2023-05-11T18:14:31.218Z,39.73
2023-05-11T18:16:57.894Z,39.96
2023-05-11T18:19:24.735Z,40.02
2023-05-11T18:21:52.222Z,40.28
2023-05-11T18:24:19.169Z,40.42
2023-05-11T18:26:45.860Z,40.53
2023-05-11T18:29:12.477Z,40.51
2023-05-11T18:31:39.795Z,40.71
2023-05-11T18:34:06.536Z,40.60
2023-05-11T18:36:33.288Z,40.80
2023-05-11T18:38:59.971Z,41.37
2023-05-11T18:41:27.349Z,41.28
2023-05-11T18:43:54.531Z,41.46
2023-05-11T18:46:21.656Z,41.61
2023-05-11T18:48:52.817Z,41.60
2023-05-11T18:51:22.890Z,41.77
2023-05-11T18:53:50.237Z,41.98
2023-05-11T18:56:17.390Z,41.86
2023-05-11T18:58:45.082Z,42.17
2023-05-11T19:01:11.747Z,42.21
2023-05-11T19:03:38.625Z,42.27
2023-05-11T19:06:07.602Z,42.30
2023-05-11T19:08:34.624Z,42.57
2023-05-11T19:11:07.851Z,42.53
2023-05-11T19:13:34.970Z,42.72
2023-05-11T19:16:03.744Z,42.71
2023-05-11T19:18:30.895Z,42.91
2023-05-11T19:20:57.696Z,42.74
2023-05-11T19:23:24.310Z,42.89
2023-05-11T19:25:50.923Z,43.29
2023-05-11T19:28:17.673Z,43.17
2023-05-11T19:30:44.226Z,43.26
2023-05-11T19:33:11.892Z,43.32
2023-05-11T19:35:38.720Z,43.39
2023-05-11T19:38:06.387Z,43.56
2023-05-11T19:43:11.340Z,43.89
2023-05-11T19:45:37.973Z,43.81
2023-05-11T19:48:04.702Z,44.04
2023-05-11T19:50:31.470Z,43.82
2023-05-11T19:52:58.148Z,44.03
2023-05-11T19:55:24.762Z,44.21
2023-05-11T19:57:51.869Z,44.25
2023-05-11T20:00:19.129Z,44.41
2023-05-11T20:02:46.531Z,44.55
2023-05-11T20:05:13.365Z,44.67
2023-05-11T20:07:40.085Z,44.73
2023-05-11T20:10:07.501Z,44.76
2023-05-11T20:12:34.299Z,44.86
2023-05-11T20:15:01.054Z,44.98
2023-05-11T20:17:27.813Z,44.97
2023-05-11T20:19:54.822Z,45.04
2023-05-11T20:22:22.646Z,45.26
2023-05-11T20:24:49.250Z,45.27
2023-05-11T20:27:15.978Z,45.47
2023-05-11T20:29:43.028Z,45.49
2023-05-11T20:32:09.640Z,45.70
2023-05-11T20:34:36.317Z,45.68
2023-05-11T20:37:02.984Z,45.80
2023-05-11T20:39:29.723Z,45.88
2023-05-11T20:41:59.852Z,46.04
2023-05-11T20:44:27.107Z,45.99
2023-05-11T20:46:53.786Z,46.02
2023-05-11T20:49:34.721Z,46.03
2023-05-11T20:52:04.870Z,45.95
2023-05-11T20:54:33.785Z,45.72
2023-05-11T20:57:01.603Z,46.04
2023-05-11T21:01:59.730Z,45.96
2023-05-11T21:04:26.335Z,46.21
2023-05-11T21:06:56.007Z,46.17
2023-05-11T21:09:22.653Z,46.22
2023-05-11T21:11:49.331Z,46.26
2023-05-11T21:14:15.940Z,46.40
2023-05-11T21:16:42.853Z,46.59
2023-05-11T21:19:09.639Z,46.42
2023-05-11T21:21:36.625Z,46.60
2023-05-11T21:24:04.208Z,46.71
2023-05-11T21:26:30.792Z,46.80
2023-05-11T21:28:57.850Z,46.82
2023-05-11T21:31:24.552Z,46.81
2023-05-11T21:33:51.990Z,46.97
2023-05-11T21:36:18.794Z,47.12
2023-05-11T21:38:45.524Z,47.07
2023-05-11T21:41:12.126Z,47.04
2023-05-11T21:43:38.748Z,47.16
2023-05-11T21:46:05.676Z,47.31
2023-05-11T21:48:32.329Z,47.37
2023-05-11T21:50:58.889Z,47.63
2023-05-11T21:53:25.933Z,47.83
2023-05-11T21:55:52.548Z,47.85
2023-05-11T21:58:19.202Z,48.26
2023-05-11T22:00:46.473Z,48.25
2023-05-11T22:03:13.402Z,48.37
2023-05-11T22:05:40.118Z,48.66
2023-05-11T22:08:15.394Z,48.80
2023-05-11T22:10:43.558Z,48.92
2023-05-11T22:13:11.118Z,48.99
2023-05-11T22:15:38.376Z,48.89
2023-05-11T22:18:05.156Z,49.19
2023-05-11T22:20:32.047Z,49.18
2023-05-11T22:22:59.469Z,49.09
2023-05-11T22:25:26.624Z,49.09
2023-05-11T22:27:53.480Z,49.28
2023-05-11T22:30:20.555Z,49.15
2023-05-11T22:32:47.466Z,49.13
2023-05-11T22:35:14.394Z,49.45
2023-05-11T22:37:41.026Z,49.35
2023-05-11T22:40:08.771Z,49.23
2023-05-11T22:42:35.738Z,49.40
2023-05-11T22:45:02.477Z,49.30
2023-05-11T22:47:29.575Z,49.42
2023-05-11T22:49:56.480Z,49.33
2023-05-11T22:52:23.225Z,49.62
2023-05-11T22:54:58.574Z,49.43
2023-05-11T22:57:28.798Z,49.36
2023-05-11T22:59:55.410Z,49.53
2023-05-11T23:02:23.280Z,49.64
2023-05-11T23:04:51.979Z,49.48
2023-05-11T23:07:19.317Z,49.55
2023-05-11T23:09:45.997Z,49.59
2023-05-11T23:12:13.549Z,49.58
2023-05-11T23:14:40.208Z,49.64
2023-05-11T23:17:06.824Z,49.63
2023-05-11T23:19:33.886Z,49.77
2023-05-11T23:22:00.837Z,49.78
2023-05-11T23:24:28.954Z,49.82
2023-05-11T23:26:55.608Z,49.90
2023-05-11T23:29:22.220Z,49.59
2023-05-11T23:31:49.440Z,50.00
2023-05-11T23:34:16.240Z,49.93
2023-05-11T23:36:42.851Z,50.13
2023-05-11T23:39:09.711Z,50.11
2023-05-11T23:41:36.867Z,50.24
2023-05-11T23:44:03.540Z,50.32
2023-05-11T23:46:30.248Z,50.53
2023-05-11T23:48:57.094Z,50.74
2023-05-11T23:51:23.753Z,50.92
2023-05-11T23:53:50.629Z,51.29
2023-05-11T23:56:17.404Z,51.34
2023-05-11T23:58:46.754Z,51.63
